OAKB/KBL METAR and TAF weather

Enter ICAO airport designator
Station Type Date Time Source
OAKB METAR 2019/02/18 03:50 UTC NOAA

OAKB 180350Z 29007KT 5000 2500S BR BKN020 01/M02 Q1012 NOSIG RMK A2991 R1129//94 WHT WHT


Station Type Date Time Source
OAKB Decoded METAR 2019/02/18 03:50 UTC NOAA

Kabul Airport, Afghanistan (OAKB) 34-38N 069-12E
Feb 17, 2019 - 10:50 PM EST / 2019.02.18 0350 UTC
Wind: from the WNW (290 degrees) at 8 MPH (7 KT):0
Visibility: 3 mile(s):0
Sky conditions: mostly cloudy
Weather: mist
Temperature: 33 F (1 C)
Windchill: 26 F (-3 C):1
Dew Point: 28 F (-2 C)
Relative Humidity: 80%
Pressure (altimeter): 29.88 in. Hg (1012 hPa)
ob: OAKB 180350Z 29007KT 5000 2500S BR BKN020 01/M02 Q1012 NOSIG RMK A2991 R1129//94 WHT WHT
cycle: 4

Station Type Date Time Source
OAKB TAF 2019/02/17 18:05 UTC NOAA

TAF OAKB 171705Z 1718/1818 VRB02KT 2000 BR SCT005 OVC012
TEMPO 1718/1804 0800 -SN FG SCT002 OVC004
BECMG 1800/1802 BKN015 OVC025
BECMG 1806/1808 6000 SCT010 BKN020
TEMPO 1810/1813 9999 SCT025


Example: see airport list